Time;durP1;ratioP1;P1;durP2;ratioP2;P2;SDS_P1;SDS_P2;PMS_P1;PMS_P2;Temp;Humidity;BMP_temperature;BMP_pressure;BME280_temperature;BME280_humidity;BME280_pressure;Samples;Min_cycle;Max_cycle;Signal;HPM_P1;HPM_P2
2021/07/09 00:01:13;;;;;;;0.80;0.68;;;24.90;48.40;;;;;;4990029;28;20571;-50
2021/07/09 00:03:41;;;;;;;0.93;0.80;;;24.90;48.40;;;;;;4991493;28;20224;-49
2021/07/09 00:06:07;;;;;;;0.75;0.73;;;24.90;48.30;;;;;;4991054;28;20211;-54
2021/07/09 00:08:34;;;;;;;0.82;0.82;;;24.90;48.30;;;;;;4991626;28;20199;-49
2021/07/09 00:11:00;;;;;;;1.15;1.05;;;24.90;48.20;;;;;;4991546;28;20207;-54
2021/07/09 00:13:27;;;;;;;0.90;0.90;;;24.90;48.20;;;;;;4991438;28;20230;-53
2021/07/09 00:15:53;;;;;;;0.90;0.90;;;24.90;48.20;;;;;;4990405;28;20200;-53
2021/07/09 00:18:20;;;;;;;1.02;0.90;;;24.90;48.20;;;;;;4990689;28;20218;-53
2021/07/09 00:20:46;;;;;;;0.80;0.80;;;24.90;48.20;;;;;;4992240;28;20398;-50
2021/07/09 00:23:13;;;;;;;1.70;0.93;;;24.90;48.10;;;;;;4988821;28;20206;-54
2021/07/09 00:25:39;;;;;;;1.15;1.05;;;24.90;48.10;;;;;;4991456;28;20204;-54
2021/07/09 00:28:06;;;;;;;1.77;1.20;;;24.90;48.10;;;;;;4991684;28;20283;-53
2021/07/09 00:30:32;;;;;;;0.82;0.82;;;24.90;48.10;;;;;;4991145;28;20208;-52
2021/07/09 00:32:59;;;;;;;1.02;1.00;;;24.90;48.10;;;;;;4990309;28;20211;-52
2021/07/09 00:35:25;;;;;;;0.70;0.70;;;24.90;48.10;;;;;;4990942;28;20208;-52
2021/07/09 00:37:51;;;;;;;0.80;0.80;;;24.90;48.10;;;;;;4991705;28;20199;-54
2021/07/09 00:40:18;;;;;;;0.80;0.80;;;24.90;48.10;;;;;;4990659;28;20525;-51
2021/07/09 00:42:44;;;;;;;0.90;0.90;;;24.90;48.10;;;;;;4989639;28;20204;-54
2021/07/09 00:45:11;;;;;;;0.73;0.73;;;24.90;48.10;;;;;;4992012;28;20224;-54
2021/07/09 00:47:37;;;;;;;1.35;0.88;;;24.90;48.00;;;;;;4990745;28;20210;-53
2021/07/09 00:50:04;;;;;;;1.17;0.90;;;24.90;48.00;;;;;;4991270;28;20222;-51
2021/07/09 00:52:30;;;;;;;1.08;0.95;;;24.90;48.00;;;;;;4986488;28;20203;-54
2021/07/09 00:54:56;;;;;;;1.00;0.80;;;24.90;48.00;;;;;;4991404;28;20306;-55
2021/07/09 00:57:23;;;;;;;0.82;0.80;;;24.90;48.00;;;;;;4995339;28;20213;-54
2021/07/09 00:59:49;;;;;;;0.95;0.80;;;24.90;47.90;;;;;;4995123;28;20340;-53
2021/07/09 01:02:16;;;;;;;1.25;0.90;;;24.90;47.90;;;;;;4994577;28;20214;-53
2021/07/09 01:04:42;;;;;;;1.23;0.90;;;24.90;47.90;;;;;;4994926;28;20220;-55
2021/07/09 01:07:09;;;;;;;1.17;0.90;;;24.90;47.90;;;;;;4994234;28;20200;-55
2021/07/09 01:09:35;;;;;;;1.10;1.00;;;24.90;47.90;;;;;;4995647;28;20195;-55
2021/07/09 01:12:02;;;;;;;0.73;0.70;;;24.90;47.90;;;;;;4993258;28;20196;-55
2021/07/09 01:14:28;;;;;;;0.80;0.80;;;24.90;47.80;;;;;;4984535;28;20227;-55
2021/07/09 01:16:54;;;;;;;1.02;0.90;;;24.90;47.80;;;;;;4976211;28;20204;-54
2021/07/09 01:19:21;;;;;;;0.95;0.80;;;24.90;47.80;;;;;;4990334;28;20227;-55
2021/07/09 01:21:47;;;;;;;0.70;0.70;;;24.90;47.80;;;;;;4995323;28;20211;-54
2021/07/09 01:24:14;;;;;;;0.85;0.82;;;24.90;47.80;;;;;;4993404;28;20234;-54
2021/07/09 01:26:40;;;;;;;1.35;0.88;;;24.90;47.80;;;;;;4993943;28;20202;-54
2021/07/09 01:29:07;;;;;;;1.58;0.80;;;24.90;47.80;;;;;;4995354;28;20204;-54
2021/07/09 01:31:33;;;;;;;1.10;0.90;;;24.90;47.80;;;;;;4993985;28;20206;-54
2021/07/09 01:33:59;;;;;;;0.90;0.90;;;24.90;47.70;;;;;;4993977;28;20216;-55
2021/07/09 01:36:26;;;;;;;0.82;0.82;;;24.90;47.70;;;;;;4994465;28;20196;-55
2021/07/09 01:38:52;;;;;;;0.98;0.90;;;24.90;47.70;;;;;;4994391;28;20211;-54
2021/07/09 01:41:20;;;;;;;0.70;0.70;;;24.90;47.70;;;;;;4992763;28;20207;-55
2021/07/09 01:43:46;;;;;;;0.85;0.80;;;24.90;47.70;;;;;;4988439;28;20224;-55
2021/07/09 01:46:12;;;;;;;0.80;0.80;;;24.90;47.70;;;;;;4994426;28;20230;-55
2021/07/09 01:48:39;;;;;;;0.98;0.82;;;24.90;47.70;;;;;;4993838;28;20320;-51
2021/07/09 01:51:05;;;;;;;0.80;0.80;;;24.90;47.70;;;;;;4992515;28;20892;-52
2021/07/09 01:53:32;;;;;;;0.80;0.70;;;24.90;47.70;;;;;;4987853;28;20572;-54
2021/07/09 01:55:58;;;;;;;0.77;0.70;;;24.90;47.70;;;;;;4992088;28;20582;-55
2021/07/09 01:58:25;;;;;;;0.55;0.55;;;24.90;47.70;;;;;;4993894;28;20243;-51
2021/07/09 02:00:51;;;;;;;0.80;0.80;;;24.90;47.70;;;;;;4994951;28;20246;-55
2021/07/09 02:03:17;;;;;;;0.73;0.73;;;24.90;47.70;;;;;;4992376;28;20315;-53
2021/07/09 02:05:44;;;;;;;0.70;0.70;;;24.90;47.60;;;;;;4993822;28;20200;-54
2021/07/09 02:08:10;;;;;;;1.67;0.80;;;24.90;47.60;;;;;;4993103;28;20214;-53
2021/07/09 02:10:37;;;;;;;0.70;0.70;;;24.90;47.60;;;;;;4994742;28;20212;-54
2021/07/09 02:13:03;;;;;;;0.82;0.80;;;24.90;47.60;;;;;;4992886;28;20227;-55
2021/07/09 02:15:30;;;;;;;0.73;0.73;;;24.90;47.60;;;;;;4993568;28;20234;-55
2021/07/09 02:17:56;;;;;;;0.80;0.80;;;24.90;47.60;;;;;;4994221;28;20566;-53
2021/07/09 02:20:22;;;;;;;0.70;0.70;;;24.90;47.60;;;;;;4993795;28;20607;-56
2021/07/09 02:22:49;;;;;;;0.57;0.57;;;24.90;47.60;;;;;;4992364;28;20663;-55
2021/07/09 02:25:16;;;;;;;0.60;0.60;;;24.90;47.60;;;;;;4993409;28;20240;-54
2021/07/09 02:27:42;;;;;;;0.98;0.98;;;24.90;47.60;;;;;;4992879;28;20199;-55
2021/07/09 02:30:09;;;;;;;0.80;0.80;;;24.90;47.60;;;;;;4993673;28;20208;-55
2021/07/09 02:32:35;;;;;;;0.88;0.80;;;24.90;47.60;;;;;;4992293;28;20204;-55
2021/07/09 02:35:01;;;;;;;0.80;0.80;;;24.90;47.60;;;;;;4991398;28;20204;-56
2021/07/09 02:37:28;;;;;;;0.70;0.70;;;24.90;47.60;;;;;;4992574;28;20210;-53
2021/07/09 02:39:54;;;;;;;1.48;0.80;;;24.90;47.60;;;;;;4993118;28;20235;-53
2021/07/09 02:42:21;;;;;;;0.77;0.75;;;24.90;47.60;;;;;;4992755;28;20200;-51
2021/07/09 02:44:47;;;;;;;0.80;0.80;;;24.90;47.60;;;;;;4992410;28;20230;-55
2021/07/09 02:47:14;;;;;;;1.02;0.90;;;24.90;47.60;;;;;;4992941;28;20210;-51
2021/07/09 02:49:40;;;;;;;0.80;0.80;;;24.90;47.60;;;;;;4991335;28;20215;-50
2021/07/09 02:52:07;;;;;;;0.75;0.70;;;24.90;47.60;;;;;;4991377;28;20203;-53
2021/07/09 02:54:33;;;;;;;1.10;0.90;;;24.90;47.60;;;;;;4991713;28;20224;-53
2021/07/09 02:56:59;;;;;;;0.80;0.80;;;24.90;47.60;;;;;;4992301;28;20211;-53
2021/07/09 02:59:26;;;;;;;0.73;0.70;;;24.90;47.60;;;;;;4993406;28;20206;-51
2021/07/09 03:01:52;;;;;;;0.95;0.77;;;24.90;47.60;;;;;;4993031;28;20210;-53
2021/07/09 03:04:19;;;;;;;0.80;0.80;;;24.90;47.50;;;;;;4991967;28;20228;-54
2021/07/09 03:06:45;;;;;;;1.15;0.80;;;24.90;47.50;;;;;;4993363;28;20204;-49
2021/07/09 03:09:12;;;;;;;1.10;0.90;;;24.90;47.50;;;;;;4992231;28;20208;-50
2021/07/09 03:11:38;;;;;;;0.80;0.80;;;24.90;47.50;;;;;;4992220;28;20200;-51
2021/07/09 03:14:04;;;;;;;0.60;0.60;;;24.90;47.50;;;;;;4992477;28;20223;-53
2021/07/09 03:16:31;;;;;;;0.95;0.63;;;24.90;47.50;;;;;;4991866;28;20204;-54
2021/07/09 03:18:57;;;;;;;0.82;0.80;;;24.90;47.60;;;;;;4992048;28;20202;-51
2021/07/09 03:21:24;;;;;;;0.70;0.70;;;24.90;47.60;;;;;;4992407;28;20241;-53
2021/07/09 03:23:50;;;;;;;0.60;0.60;;;24.90;47.70;;;;;;4992032;28;20215;-51
2021/07/09 03:26:17;;;;;;;0.63;0.63;;;24.90;47.70;;;;;;4992149;28;20200;-55
2021/07/09 03:28:43;;;;;;;1.00;0.90;;;24.90;47.70;;;;;;4993122;28;20203;-56
2021/07/09 03:31:10;;;;;;;0.70;0.70;;;24.90;47.70;;;;;;4992075;28;20206;-54
2021/07/09 03:33:36;;;;;;;0.70;0.70;;;24.90;47.60;;;;;;4980548;28;20222;-58
2021/07/09 03:36:03;;;;;;;1.95;0.80;;;24.90;47.70;;;;;;4990062;28;20214;-57
2021/07/09 03:38:29;;;;;;;0.70;0.70;;;24.90;47.70;;;;;;4985491;28;20215;-57
2021/07/09 03:40:56;;;;;;;0.90;0.80;;;24.90;47.70;;;;;;4980497;28;20246;-55
2021/07/09 03:43:22;;;;;;;0.80;0.80;;;24.90;47.60;;;;;;4992158;28;20224;-58
2021/07/09 03:45:48;;;;;;;1.45;0.70;;;24.90;47.70;;;;;;4991634;28;20203;-59
2021/07/09 03:48:15;;;;;;;1.08;0.90;;;24.90;47.60;;;;;;4990870;28;20210;-58
2021/07/09 03:50:42;;;;;;;1.95;0.80;;;24.90;47.60;;;;;;4986430;28;20202;-58
2021/07/09 03:53:08;;;;;;;0.63;0.63;;;24.90;47.60;;;;;;4986662;28;20339;-57
2021/07/09 03:55:35;;;;;;;1.00;0.90;;;24.90;47.60;;;;;;4988078;28;20204;-58
2021/07/09 03:58:02;;;;;;;1.25;1.15;;;24.90;47.60;;;;;;4991767;28;20207;-58
2021/07/09 04:00:28;;;;;;;0.77;0.77;;;24.90;47.60;;;;;;4986407;28;20331;-58
2021/07/09 04:02:55;;;;;;;0.80;0.80;;;24.90;47.60;;;;;;4991378;28;20223;-58
2021/07/09 04:05:21;;;;;;;1.10;0.70;;;24.90;47.60;;;;;;4990875;28;20218;-54
2021/07/09 04:07:47;;;;;;;0.63;0.63;;;24.90;47.60;;;;;;4992111;28;20192;-54
2021/07/09 04:10:14;;;;;;;0.88;0.88;;;24.90;47.60;;;;;;4990687;28;20299;-54
2021/07/09 04:12:40;;;;;;;0.82;0.65;;;24.90;47.60;;;;;;4991828;28;20229;-55
2021/07/09 04:15:07;;;;;;;0.60;0.60;;;24.90;47.60;;;;;;4990281;28;20200;-53
2021/07/09 04:17:33;;;;;;;0.85;0.60;;;24.90;47.60;;;;;;4987935;28;20218;-55
2021/07/09 04:20:00;;;;;;;0.70;0.70;;;24.90;47.60;;;;;;4991733;28;20837;-54
2021/07/09 04:22:26;;;;;;;0.70;0.70;;;24.90;47.60;;;;;;4989936;28;20331;-54
2021/07/09 04:24:53;;;;;;;0.70;0.70;;;24.90;47.50;;;;;;4991038;28;20206;-58
2021/07/09 04:27:19;;;;;;;1.10;0.80;;;24.90;47.50;;;;;;4990233;28;20200;-59
2021/07/09 04:29:46;;;;;;;0.70;0.70;;;24.90;47.50;;;;;;4990450;28;20290;-58
2021/07/09 04:32:13;;;;;;;0.65;0.65;;;24.90;47.60;;;;;;4987207;28;20282;-58
2021/07/09 04:34:39;;;;;;;0.77;0.70;;;24.90;47.60;;;;;;4979360;28;20196;-58
2021/07/09 04:37:08;;;;;;;0.70;0.70;;;24.90;47.60;;;;;;4985045;28;20218;-48
2021/07/09 04:39:35;;;;;;;0.70;0.70;;;24.90;47.60;;;;;;4981759;28;20281;-58
2021/07/09 04:42:01;;;;;;;1.73;1.50;;;24.90;47.80;;;;;;4992332;28;20222;-61
2021/07/09 04:44:28;;;;;;;2.38;0.82;;;24.90;47.90;;;;;;4984623;28;20578;-62
2021/07/09 04:46:54;;;;;;;1.75;0.80;;;24.90;48.50;;;;;;4990387;28;20207;-56
2021/07/09 04:49:21;;;;;;;1.75;1.10;;;24.90;48.50;;;;;;4991394;28;20370;-57
2021/07/09 04:51:47;;;;;;;2.05;0.88;;;24.90;48.50;;;;;;4990850;28;20235;-57
2021/07/09 04:54:13;;;;;;;0.68;0.68;;;24.90;48.50;;;;;;4987754;28;20227;-58
2021/07/09 04:56:40;;;;;;;1.10;0.80;;;22.70;44.00;;;;;;4985499;28;20223;-59
2021/07/09 04:59:06;;;;;;;0.75;0.75;;;21.90;48.80;;;;;;4981602;28;20234;-56
2021/07/09 05:01:33;;;;;;;0.95;0.70;;;20.60;49.40;;;;;;4989840;28;20227;-56
2021/07/09 05:03:59;;;;;;;1.77;0.80;;;21.30;49.30;;;;;;4985507;28;20692;-58
2021/07/09 05:06:26;;;;;;;0.80;0.80;;;22.20;48.00;;;;;;4988984;28;20210;-57
2021/07/09 05:08:53;;;;;;;0.70;0.70;;;22.80;47.00;;;;;;4988520;28;20200;-58
2021/07/09 05:11:19;;;;;;;1.52;1.00;;;23.20;47.00;;;;;;4990767;28;20211;-57
2021/07/09 05:13:45;;;;;;;2.15;0.90;;;23.50;46.70;;;;;;4988824;28;20227;-58
2021/07/09 05:16:12;;;;;;;0.70;0.70;;;23.80;46.50;;;;;;4991048;28;20231;-58
2021/07/09 05:18:38;;;;;;;0.98;0.80;;;23.90;46.40;;;;;;4990286;28;20291;-58
2021/07/09 05:21:05;;;;;;;0.90;0.80;;;24.00;46.30;;;;;;4991148;28;20802;-59
2021/07/09 05:23:32;;;;;;;0.82;0.82;;;24.10;46.20;;;;;;4990063;28;20224;-58
2021/07/09 05:25:58;;;;;;;1.33;0.70;;;24.20;46.30;;;;;;4991307;28;20306;-59
2021/07/09 05:28:25;;;;;;;1.85;0.75;;;24.30;46.20;;;;;;4990684;28;20208;-59
2021/07/09 05:30:51;;;;;;;2.28;0.90;;;24.30;46.10;;;;;;4987198;28;20288;-61
2021/07/09 05:33:17;;;;;;;1.30;0.77;;;24.30;46.40;;;;;;4988211;28;20234;-58
2021/07/09 05:35:44;;;;;;;1.38;0.73;;;24.40;46.40;;;;;;4991123;28;20212;-59
2021/07/09 05:38:10;;;;;;;0.70;0.70;;;24.40;45.90;;;;;;4984905;28;20212;-57
2021/07/09 05:40:37;;;;;;;0.70;0.70;;;24.40;45.70;;;;;;4989379;28;20227;-56
2021/07/09 05:43:03;;;;;;;2.40;0.80;;;24.40;45.70;;;;;;4993621;28;20759;-60
2021/07/09 05:45:30;;;;;;;1.17;0.70;;;24.40;45.70;;;;;;4994497;28;20253;-59
2021/07/09 05:47:56;;;;;;;1.00;0.90;;;24.50;46.40;;;;;;4993821;28;20204;-57
2021/07/09 05:50:23;;;;;;;1.27;0.77;;;24.50;46.20;;;;;;4994258;28;20207;-59
2021/07/09 05:52:50;;;;;;;4.95;1.08;;;24.50;45.90;;;;;;4992486;28;20355;-62
2021/07/09 05:55:16;;;;;;;3.45;0.80;;;24.60;46.30;;;;;;4993542;28;20203;-59
2021/07/09 05:57:43;;;;;;;1.85;0.60;;;24.60;46.10;;;;;;4993773;28;20214;-58
2021/07/09 06:00:09;;;;;;;1.15;0.98;;;24.60;45.90;;;;;;4994527;28;20204;-62
2021/07/09 06:02:36;;;;;;;0.63;0.63;;;24.60;45.90;;;;;;4993737;28;20311;-68
2021/07/09 06:05:02;;;;;;;2.47;0.70;;;24.60;45.70;;;;;;4993587;28;20199;-57
2021/07/09 06:07:29;;;;;;;1.58;0.70;;;24.60;45.60;;;;;;4994193;28;20204;-60
2021/07/09 06:09:55;;;;;;;0.70;0.70;;;24.60;46.00;;;;;;4994075;28;20736;-61
2021/07/09 06:12:22;;;;;;;1.95;0.75;;;24.60;45.70;;;;;;4989069;28;20224;-59
2021/07/09 06:14:48;;;;;;;1.15;0.80;;;24.70;45.70;;;;;;4988559;28;20206;-61
2021/07/09 06:17:14;;;;;;;0.60;0.60;;;24.60;46.10;;;;;;4992993;28;20204;-60
2021/07/09 06:19:41;;;;;;;0.80;0.63;;;24.70;45.80;;;;;;4988907;28;20210;-55
2021/07/09 06:22:07;;;;;;;1.05;0.70;;;24.70;45.60;;;;;;4993110;28;20695;-61
2021/07/09 06:24:34;;;;;;;0.70;0.70;;;24.70;46.20;;;;;;4993161;28;20961;-61
2021/07/09 06:27:00;;;;;;;0.70;0.70;;;24.70;45.80;;;;;;4993514;28;20657;-63
2021/07/09 06:29:27;;;;;;;3.88;0.73;;;24.70;45.40;;;;;;4993779;28;20210;-63
2021/07/09 06:31:53;;;;;;;0.50;0.50;;;24.70;45.20;;;;;;4991596;28;20230;-62
2021/07/09 06:34:20;;;;;;;0.70;0.70;;;24.70;45.10;;;;;;4994915;28;20203;-62
2021/07/09 06:36:46;;;;;;;0.70;0.70;;;24.70;45.10;;;;;;4993155;28;20206;-62
2021/07/09 06:39:13;;;;;;;0.75;0.75;;;24.70;45.70;;;;;;4993686;28;20208;-58
2021/07/09 06:41:39;;;;;;;0.95;0.57;;;24.70;45.00;;;;;;4988035;28;20261;-54
2021/07/09 06:44:06;;;;;;;0.80;0.80;;;24.70;45.20;;;;;;4992723;28;20206;-52
2021/07/09 06:46:32;;;;;;;1.08;0.70;;;24.70;45.00;;;;;;4992787;28;20200;-51
2021/07/09 06:48:59;;;;;;;0.70;0.70;;;24.70;45.00;;;;;;4992239;28;20206;-48
2021/07/09 06:51:25;;;;;;;0.88;0.60;;;24.70;45.10;;;;;;4986136;28;20694;-52
2021/07/09 06:53:52;;;;;;;1.15;0.80;;;24.70;45.00;;;;;;4989057;28;20222;-52
2021/07/09 06:56:18;;;;;;;0.80;0.80;;;24.70;45.00;;;;;;4992772;28;20204;-49
2021/07/09 06:58:44;;;;;;;1.00;0.90;;;24.70;45.10;;;;;;4990716;28;20201;-52
2021/07/09 07:01:11;;;;;;;0.98;0.80;;;24.70;45.10;;;;;;4993155;28;20663;-48
2021/07/09 07:03:37;;;;;;;0.80;0.80;;;24.70;45.10;;;;;;4992912;28;20589;-53
2021/07/09 07:06:04;;;;;;;0.75;0.75;;;24.70;45.10;;;;;;4991204;28;20225;-55
2021/07/09 07:08:30;;;;;;;0.77;0.77;;;24.70;45.10;;;;;;4990447;28;20217;-53
2021/07/09 07:10:57;;;;;;;0.90;0.60;;;24.70;45.10;;;;;;4991724;28;20226;-52
2021/07/09 07:13:23;;;;;;;1.35;0.80;;;24.70;45.40;;;;;;4987941;28;20203;-55
2021/07/09 07:15:49;;;;;;;1.40;0.70;;;24.70;45.40;;;;;;4992914;28;20208;-59
2021/07/09 07:18:16;;;;;;;5.40;0.90;;;24.70;45.40;;;;;;4992170;28;20684;-60
2021/07/09 07:20:42;;;;;;;0.80;0.80;;;24.70;45.30;;;;;;4992679;28;20712;-58
2021/07/09 07:23:09;;;;;;;0.80;0.80;;;24.70;45.20;;;;;;4990187;28;20880;-59
2021/07/09 07:25:36;;;;;;;1.70;0.60;;;24.70;45.20;;;;;;4986441;28;20203;-57
2021/07/09 07:28:02;;;;;;;1.38;0.70;;;24.70;45.50;;;;;;4988626;28;20202;-58
2021/07/09 07:30:29;;;;;;;2.03;0.90;;;24.70;45.30;;;;;;4991226;28;20205;-58
2021/07/09 07:32:55;;;;;;;0.88;0.70;;;24.70;45.10;;;;;;4990413;28;20602;-56
2021/07/09 07:35:21;;;;;;;1.30;0.80;;;24.70;45.00;;;;;;4991755;28;20203;-60
2021/07/09 07:37:48;;;;;;;1.63;0.77;;;24.70;45.40;;;;;;4989726;28;20199;-56
2021/07/09 07:40:14;;;;;;;1.30;1.20;;;24.70;44.50;;;;;;4991595;28;20204;-59
2021/07/09 07:42:41;;;;;;;2.35;0.90;;;24.60;45.20;;;;;;4990789;28;20315;-57
2021/07/09 07:45:07;;;;;;;1.83;0.90;;;24.70;45.20;;;;;;4990889;28;20218;-56
2021/07/09 07:47:34;;;;;;;0.90;0.90;;;24.60;45.10;;;;;;4990025;28;20200;-58
2021/07/09 07:50:00;;;;;;;14.27;1.40;;;24.70;44.70;;;;;;4990967;28;20294;-59
2021/07/09 07:52:27;;;;;;;0.60;0.60;;;24.70;44.90;;;;;;4988942;28;20787;-58
2021/07/09 07:54:53;;;;;;;1.75;0.93;;;24.70;44.80;;;;;;4988378;28;20204;-58
2021/07/09 07:57:19;;;;;;;1.92;1.17;;;24.70;44.50;;;;;;4989345;28;20210;-57
2021/07/09 07:59:46;;;;;;;1.27;0.90;;;24.70;44.80;;;;;;4989008;28;20212;-56
2021/07/09 08:02:12;;;;;;;1.10;0.98;;;24.70;44.80;;;;;;4988708;28;20240;-61
2021/07/09 08:04:39;;;;;;;0.90;0.90;;;24.70;44.60;;;;;;4990858;28;20206;-64
2021/07/09 08:07:05;;;;;;;1.77;0.70;;;24.70;44.80;;;;;;4990230;28;20656;-60
2021/07/09 08:09:32;;;;;;;1.02;0.90;;;24.70;44.70;;;;;;4990064;28;20211;-58
2021/07/09 08:11:58;;;;;;;1.00;0.98;;;24.70;44.70;;;;;;4990406;28;20223;-58
2021/07/09 08:14:25;;;;;;;2.05;1.10;;;24.80;45.20;;;;;;4988960;28;20585;-61
2021/07/09 08:16:51;;;;;;;0.80;0.80;;;24.70;44.90;;;;;;4990177;28;20234;-61
2021/07/09 08:19:18;;;;;;;3.13;1.10;;;24.70;44.80;;;;;;4989895;28;20196;-61
2021/07/09 08:21:46;;;;;;;1.05;0.80;;;24.80;44.90;;;;;;4990192;28;20339;-59
2021/07/09 08:24:12;;;;;;;2.00;0.80;;;24.80;44.80;;;;;;4988346;28;20584;-58
2021/07/09 08:26:39;;;;;;;0.93;0.80;;;24.80;44.90;;;;;;4989487;28;20520;-63
2021/07/09 08:29:05;;;;;;;1.60;1.00;;;24.80;44.80;;;;;;4989741;28;20211;-59
2021/07/09 08:31:32;;;;;;;2.15;0.95;;;24.80;44.80;;;;;;4990217;28;20230;-61
2021/07/09 08:33:58;;;;;;;2.35;0.80;;;24.80;45.10;;;;;;4989035;28;20211;-60
2021/07/09 08:36:25;;;;;;;0.90;0.80;;;24.80;45.40;;;;;;4989053;28;20274;-64
2021/07/09 08:38:51;;;;;;;1.10;0.90;;;24.90;45.00;;;;;;4990365;28;20554;-59
2021/07/09 08:41:18;;;;;;;1.27;1.20;;;24.80;45.10;;;;;;4988816;28;20235;-59
2021/07/09 08:43:44;;;;;;;1.17;1.08;;;24.80;44.90;;;;;;4989818;28;20207;-60
2021/07/09 08:46:11;;;;;;;5.00;0.80;;;24.80;44.40;;;;;;4989217;28;20222;-59
2021/07/09 08:48:37;;;;;;;0.90;0.90;;;24.70;44.40;;;;;;4986510;28;20204;-59
2021/07/09 08:51:03;;;;;;;1.92;0.90;;;24.70;44.20;;;;;;4984509;28;20239;-58
2021/07/09 08:53:30;;;;;;;0.90;0.90;;;24.70;44.00;;;;;;4988978;28;20199;-61
2021/07/09 08:55:56;;;;;;;0.70;0.70;;;24.70;43.80;;;;;;4989257;28;20207;-57
2021/07/09 08:58:23;;;;;;;0.98;0.98;;;24.70;44.20;;;;;;4990083;28;20283;-55
2021/07/09 09:00:49;;;;;;;2.03;0.90;;;24.70;43.60;;;;;;4989378;28;20307;-59
2021/07/09 09:03:16;;;;;;;2.50;1.00;;;24.60;43.40;;;;;;4990211;28;20220;-59
2021/07/09 09:05:42;;;;;;;2.13;0.90;;;24.70;43.50;;;;;;4988901;28;20214;-58
2021/07/09 09:08:09;;;;;;;1.83;1.00;;;24.60;43.40;;;;;;4990642;28;20200;-59
2021/07/09 09:10:35;;;;;;;0.90;0.90;;;24.60;43.40;;;;;;4988109;28;20199;-58
2021/07/09 09:13:01;;;;;;;1.15;1.00;;;24.70;43.60;;;;;;4990326;28;20211;-59
2021/07/09 09:15:28;;;;;;;1.05;1.00;;;24.60;43.40;;;;;;4985045;28;20234;-59
2021/07/09 09:17:54;;;;;;;1.00;0.80;;;24.60;43.40;;;;;;4993032;28;20206;-59
2021/07/09 09:20:21;;;;;;;0.95;0.93;;;24.60;43.40;;;;;;4992826;28;20207;-59
2021/07/09 09:22:47;;;;;;;1.35;0.90;;;24.60;43.40;;;;;;4993203;28;20231;-59
2021/07/09 09:25:14;;;;;;;1.00;1.00;;;24.60;43.30;;;;;;4994542;28;20219;-59
2021/07/09 09:27:40;;;;;;;1.10;1.10;;;24.60;43.40;;;;;;4993835;28;20303;-59
2021/07/09 09:30:07;;;;;;;1.95;0.80;;;24.60;43.40;;;;;;4993520;28;20204;-59
2021/07/09 09:32:33;;;;;;;1.50;1.25;;;24.60;43.40;;;;;;4992571;28;20227;-59
2021/07/09 09:35:00;;;;;;;1.10;1.00;;;24.60;43.40;;;;;;4991156;28;20202;-59
2021/07/09 09:37:28;;;;;;;1.70;0.95;;;24.60;43.40;;;;;;4991589;28;20206;-60
2021/07/09 09:39:55;;;;;;;0.88;0.88;;;24.60;43.40;;;;;;4991285;28;20196;-54
2021/07/09 09:42:22;;;;;;;1.52;0.90;;;24.60;43.40;;;;;;4993849;28;20250;-50
2021/07/09 09:44:49;;;;;;;1.17;0.90;;;24.60;43.40;;;;;;4989406;28;20278;-59
2021/07/09 09:47:15;;;;;;;0.70;0.70;;;24.60;43.40;;;;;;4992441;28;20222;-58
2021/07/09 09:49:42;;;;;;;0.93;0.80;;;24.60;43.50;;;;;;4992823;28;20200;-57
2021/07/09 09:52:08;;;;;;;0.90;0.90;;;24.70;43.50;;;;;;4991129;28;20234;-58
2021/07/09 09:54:34;;;;;;;1.00;1.00;;;24.70;43.50;;;;;;4987741;28;20204;-58
2021/07/09 09:57:01;;;;;;;0.90;0.90;;;24.70;43.50;;;;;;4992514;28;20225;-58
2021/07/09 09:59:28;;;;;;;3.35;1.30;;;24.40;43.40;;;;;;4985795;28;20208;-56
2021/07/09 10:01:55;;;;;;;0.93;0.88;;;24.40;43.80;;;;;;4992271;28;20224;-57
2021/07/09 10:04:21;;;;;;;1.83;1.02;;;24.40;43.70;;;;;;4992109;28;20241;-59
2021/07/09 10:06:47;;;;;;;1.10;1.00;;;24.50;44.10;;;;;;4989948;28;20216;-61
2021/07/09 10:09:14;;;;;;;1.02;1.02;;;24.60;44.20;;;;;;4992289;28;20208;-63
2021/07/09 10:11:40;;;;;;;1.77;1.02;;;24.60;44.40;;;;;;4991451;28;20315;-61
2021/07/09 10:14:07;;;;;;;1.10;1.00;;;24.60;44.40;;;;;;4992561;28;20211;-58
2021/07/09 10:16:33;;;;;;;1.25;1.08;;;24.70;44.40;;;;;;4992763;28;20206;-58
2021/07/09 10:19:00;;;;;;;1.63;0.85;;;24.70;44.50;;;;;;4991611;28;20204;-58
2021/07/09 10:21:26;;;;;;;1.20;1.00;;;24.70;44.30;;;;;;4973864;28;20738;-58
2021/07/09 10:23:53;;;;;;;2.13;1.10;;;24.70;44.20;;;;;;4978960;28;20204;-59
2021/07/09 10:26:19;;;;;;;0.88;0.88;;;24.70;44.10;;;;;;4993179;28;20203;-63
2021/07/09 10:28:46;;;;;;;1.10;1.00;;;24.70;44.10;;;;;;4988881;28;20199;-60
2021/07/09 10:31:12;;;;;;;1.52;1.00;;;24.70;44.20;;;;;;4984207;28;20231;-69
2021/07/09 10:33:39;;;;;;;1.48;1.00;;;24.80;44.30;;;;;;4982469;28;20208;-60
2021/07/09 10:36:05;;;;;;;1.48;1.10;;;24.80;44.30;;;;;;4992472;28;20204;-59
2021/07/09 10:38:31;;;;;;;1.90;0.93;;;24.80;44.30;;;;;;4991925;28;20282;-59
2021/07/09 10:40:58;;;;;;;2.83;1.15;;;24.80;44.30;;;;;;4992151;28;20646;-64
2021/07/09 10:43:24;;;;;;;2.13;1.10;;;24.80;45.00;;;;;;4990208;28;20714;-59
2021/07/09 10:45:51;;;;;;;1.20;1.00;;;24.80;45.10;;;;;;4984783;28;20900;-59
2021/07/09 10:48:17;;;;;;;2.22;1.45;;;24.80;45.40;;;;;;4987067;28;20210;-58
2021/07/09 10:50:44;;;;;;;3.90;1.88;;;24.90;46.10;;;;;;4992365;28;20299;-58
2021/07/09 10:53:10;;;;;;;2.35;1.60;;;24.90;46.80;;;;;;4991527;28;20212;-57
2021/07/09 10:55:40;;;;;;;2.45;1.75;;;24.90;47.00;;;;;;4991523;28;20661;-58
2021/07/09 10:58:06;;;;;;;4.88;1.88;;;24.90;47.40;;;;;;4992403;28;20208;-59
2021/07/09 11:00:33;;;;;;;3.83;2.05;;;24.90;47.80;;;;;;4992443;28;20226;-60
2021/07/09 11:03:00;;;;;;;5.72;2.10;;;24.90;47.70;;;;;;4992110;28;20228;-59
2021/07/09 11:05:26;;;;;;;3.53;1.98;;;24.90;47.70;;;;;;4992164;28;20196;-59
2021/07/09 11:07:52;;;;;;;3.78;1.80;;;24.90;47.90;;;;;;4992147;28;20222;-59
2021/07/09 11:10:19;;;;;;;4.55;2.15;;;24.90;47.70;;;;;;4992162;28;20762;-59
2021/07/09 11:12:45;;;;;;;3.95;1.90;;;24.90;47.90;;;;;;4987132;28;20298;-57
2021/07/09 11:15:12;;;;;;;4.57;1.63;;;24.90;47.80;;;;;;4991591;28;20199;-57
2021/07/09 11:17:38;;;;;;;4.47;2.03;;;24.90;47.60;;;;;;4985273;28;20204;-58
2021/07/09 11:20:05;;;;;;;4.32;1.80;;;24.90;47.70;;;;;;4989992;28;20200;-58
2021/07/09 11:22:31;;;;;;;2.47;1.70;;;24.90;47.70;;;;;;4987670;28;20223;-58
2021/07/09 11:24:58;;;;;;;4.22;1.95;;;24.90;47.70;;;;;;4990920;28;20206;-58
2021/07/09 11:27:25;;;;;;;3.50;2.00;;;24.90;47.60;;;;;;4988044;28;20211;-58
2021/07/09 11:29:56;;;;;;;3.33;1.80;;;24.90;47.60;;;;;;4990244;28;20204;-58
2021/07/09 11:32:23;;;;;;;4.30;1.92;;;25.00;47.50;;;;;;4974086;28;20207;-58
2021/07/09 11:34:49;;;;;;;4.40;2.22;;;24.90;47.20;;;;;;4991393;28;20283;-58
2021/07/09 11:37:16;;;;;;;2.60;1.63;;;24.90;47.30;;;;;;4990472;28;20235;-59
2021/07/09 11:39:42;;;;;;;3.10;1.92;;;25.00;47.40;;;;;;4988929;28;20222;-58
2021/07/09 11:42:09;;;;;;;3.42;1.80;;;25.00;48.30;;;;;;4992183;28;20259;-59
2021/07/09 11:44:35;;;;;;;4.30;1.88;;;25.00;48.00;;;;;;4991909;28;20204;-59
2021/07/09 11:47:02;;;;;;;4.53;1.95;;;24.90;47.90;;;;;;4991657;28;20246;-59
2021/07/09 11:49:28;;;;;;;3.63;2.05;;;25.00;48.00;;;;;;4992220;28;20206;-59
2021/07/09 11:51:55;;;;;;;4.40;1.70;;;25.00;48.00;;;;;;4991874;28;20230;-60
2021/07/09 11:54:21;;;;;;;3.88;1.65;;;24.90;47.90;;;;;;4989506;28;20200;-59
2021/07/09 11:56:48;;;;;;;2.95;1.63;;;24.90;47.90;;;;;;4987413;28;20207;-59
2021/07/09 11:59:14;;;;;;;4.75;1.80;;;24.90;47.70;;;;;;4992150;28;20204;-56
2021/07/09 12:01:40;;;;;;;3.13;1.92;;;24.90;47.90;;;;;;4990226;28;20231;-57
2021/07/09 12:04:07;;;;;;;3.42;1.42;;;24.90;47.80;;;;;;4989063;28;20207;-58
2021/07/09 12:06:33;;;;;;;2.35;1.80;;;24.90;47.70;;;;;;4987977;28;20215;-58
2021/07/09 12:09:00;;;;;;;2.22;1.40;;;24.90;47.70;;;;;;4990464;28;20203;-57
2021/07/09 12:11:26;;;;;;;3.25;1.67;;;24.90;47.60;;;;;;4990530;28;20224;-58
2021/07/09 12:13:53;;;;;;;3.30;2.05;;;24.90;47.60;;;;;;4989726;28;20214;-59
2021/07/09 12:16:19;;;;;;;2.80;1.85;;;24.90;47.70;;;;;;4989264;28;20224;-58
2021/07/09 12:18:45;;;;;;;3.28;1.85;;;24.90;47.60;;;;;;4990636;28;20199;-58
2021/07/09 12:21:12;;;;;;;3.05;1.98;;;24.90;47.60;;;;;;4989293;28;20658;-59
2021/07/09 12:23:38;;;;;;;3.00;1.75;;;24.90;47.60;;;;;;4990965;28;20597;-58
2021/07/09 12:26:05;;;;;;;3.85;2.22;;;24.90;47.50;;;;;;4988448;28;20661;-58
2021/07/09 12:28:32;;;;;;;3.72;1.77;;;24.90;47.50;;;;;;4991001;28;20210;-58
2021/07/09 12:30:58;;;;;;;2.47;1.77;;;24.90;47.40;;;;;;4990359;28;20223;-58
2021/07/09 12:33:26;;;;;;;2.58;1.70;;;24.90;47.40;;;;;;4990765;28;20200;-58
2021/07/09 12:35:53;;;;;;;2.75;1.70;;;24.90;47.30;;;;;;4991061;28;20200;-59
2021/07/09 12:38:19;;;;;;;2.90;1.63;;;24.90;47.30;;;;;;4990801;28;20686;-58
2021/07/09 12:40:46;;;;;;;3.17;1.70;;;24.90;47.20;;;;;;4990935;28;20721;-58
2021/07/09 12:43:12;;;;;;;7.97;2.35;;;24.90;47.20;;;;;;4990476;28;20699;-60